sensor_id;sensor_type;location;lat;lon;timestamp;P1;durP1;ratioP1;P2;durP2;ratioP2
31537;SDS011;18147;51.952;6.146;2023-04-01T00:00:29;12.68;;;3.15;;
31537;SDS011;18147;51.952;6.146;2023-04-01T00:02:56;9.25;;;2.63;;
31537;SDS011;18147;51.952;6.146;2023-04-01T00:05:22;8.38;;;2.53;;
31537;SDS011;18147;51.952;6.146;2023-04-01T00:07:49;10.73;;;3.15;;
31537;SDS011;18147;51.952;6.146;2023-04-01T00:10:16;7.25;;;2.33;;
31537;SDS011;18147;51.952;6.146;2023-04-01T00:12:41;7.07;;;2.90;;
31537;SDS011;18147;51.952;6.146;2023-04-01T00:15:08;6.90;;;2.50;;
31537;SDS011;18147;51.952;6.146;2023-04-01T00:17:35;6.47;;;2.75;;
31537;SDS011;18147;51.952;6.146;2023-04-01T00:20:00;9.93;;;2.85;;
31537;SDS011;18147;51.952;6.146;2023-04-01T00:22:27;6.60;;;2.80;;
31537;SDS011;18147;51.952;6.146;2023-04-01T00:24:53;6.97;;;3.25;;
31537;SDS011;18147;51.952;6.146;2023-04-01T00:27:19;11.68;;;3.65;;
31537;SDS011;18147;51.952;6.146;2023-04-01T00:29:46;7.68;;;2.92;;
31537;SDS011;18147;51.952;6.146;2023-04-01T00:32:13;8.95;;;3.38;;
31537;SDS011;18147;51.952;6.146;2023-04-01T00:34:39;4.25;;;3.72;;
31537;SDS011;18147;51.952;6.146;2023-04-01T00:37:07;6.20;;;3.75;;
31537;SDS011;18147;51.952;6.146;2023-04-01T00:39:34;5.43;;;4.18;;
31537;SDS011;18147;51.952;6.146;2023-04-01T00:42:03;6.20;;;4.05;;
31537;SDS011;18147;51.952;6.146;2023-04-01T00:44:30;9.00;;;4.28;;
31537;SDS011;18147;51.952;6.146;2023-04-01T00:46:57;5.40;;;3.20;;
31537;SDS011;18147;51.952;6.146;2023-04-01T00:49:29;6.40;;;3.70;;
31537;SDS011;18147;51.952;6.146;2023-04-01T00:51:59;6.80;;;3.30;;
31537;SDS011;18147;51.952;6.146;2023-04-01T00:54:27;10.52;;;3.90;;
31537;SDS011;18147;51.952;6.146;2023-04-01T00:56:56;7.20;;;3.10;;
31537;SDS011;18147;51.952;6.146;2023-04-01T00:59:27;13.52;;;4.40;;
31537;SDS011;18147;51.952;6.146;2023-04-01T01:01:56;11.40;;;3.72;;
31537;SDS011;18147;51.952;6.146;2023-04-01T01:04:23;10.07;;;3.70;;
31537;SDS011;18147;51.952;6.146;2023-04-01T01:09:30;15.93;;;4.95;;
31537;SDS011;18147;51.952;6.146;2023-04-01T01:12:25;21.77;;;5.78;;
31537;SDS011;18147;51.952;6.146;2023-04-01T01:15:24;12.82;;;4.93;;
31537;SDS011;18147;51.952;6.146;2023-04-01T01:25:59;11.30;;;5.10;;
31537;SDS011;18147;51.952;6.146;2023-04-01T01:37:42;13.23;;;6.15;;
31537;SDS011;18147;51.952;6.146;2023-04-01T01:40:11;14.33;;;6.10;;
31537;SDS011;18147;51.952;6.146;2023-04-01T01:42:40;10.68;;;4.82;;
31537;SDS011;18147;51.952;6.146;2023-04-01T01:45:14;12.38;;;6.32;;
31537;SDS011;18147;51.952;6.146;2023-04-01T01:47:45;15.05;;;6.47;;
31537;SDS011;18147;51.952;6.146;2023-04-01T01:50:12;13.02;;;6.60;;
31537;SDS011;18147;51.952;6.146;2023-04-01T01:52:39;13.75;;;6.03;;
31537;SDS011;18147;51.952;6.146;2023-04-01T01:57:52;16.50;;;7.15;;
31537;SDS011;18147;51.952;6.146;2023-04-01T02:00:19;15.95;;;7.07;;
31537;SDS011;18147;51.952;6.146;2023-04-01T02:02:46;13.75;;;6.22;;
31537;SDS011;18147;51.952;6.146;2023-04-01T02:05:26;19.77;;;7.45;;
31537;SDS011;18147;51.952;6.146;2023-04-01T02:08:07;15.32;;;7.95;;
31537;SDS011;18147;51.952;6.146;2023-04-01T02:10:39;15.88;;;7.38;;
31537;SDS011;18147;51.952;6.146;2023-04-01T02:13:11;18.70;;;8.02;;
31537;SDS011;18147;51.952;6.146;2023-04-01T02:15:45;15.20;;;7.57;;
31537;SDS011;18147;51.952;6.146;2023-04-01T02:18:14;17.75;;;7.95;;
31537;SDS011;18147;51.952;6.146;2023-04-01T02:20:43;18.23;;;8.15;;
31537;SDS011;18147;51.952;6.146;2023-04-01T02:23:10;20.08;;;8.32;;
31537;SDS011;18147;51.952;6.146;2023-04-01T02:25:37;18.73;;;8.75;;
31537;SDS011;18147;51.952;6.146;2023-04-01T02:28:06;20.27;;;9.23;;
31537;SDS011;18147;51.952;6.146;2023-04-01T02:30:34;18.77;;;8.02;;
31537;SDS011;18147;51.952;6.146;2023-04-01T02:33:05;17.13;;;8.35;;
31537;SDS011;18147;51.952;6.146;2023-04-01T02:35:32;18.98;;;8.30;;
31537;SDS011;18147;51.952;6.146;2023-04-01T02:38:00;15.20;;;7.40;;
31537;SDS011;18147;51.952;6.146;2023-04-01T02:40:26;17.42;;;7.57;;
31537;SDS011;18147;51.952;6.146;2023-04-01T02:42:52;13.27;;;7.63;;
31537;SDS011;18147;51.952;6.146;2023-04-01T02:45:19;17.02;;;8.23;;
31537;SDS011;18147;51.952;6.146;2023-04-01T02:47:45;18.50;;;8.52;;
31537;SDS011;18147;51.952;6.146;2023-04-01T02:50:11;15.55;;;7.40;;
31537;SDS011;18147;51.952;6.146;2023-04-01T02:52:37;20.08;;;7.68;;
31537;SDS011;18147;51.952;6.146;2023-04-01T02:55:03;15.30;;;8.80;;
31537;SDS011;18147;51.952;6.146;2023-04-01T02:57:33;22.20;;;8.80;;
31537;SDS011;18147;51.952;6.146;2023-04-01T02:59:59;16.77;;;8.65;;
31537;SDS011;18147;51.952;6.146;2023-04-01T03:02:24;18.40;;;7.38;;
31537;SDS011;18147;51.952;6.146;2023-04-01T03:04:50;15.25;;;7.00;;
31537;SDS011;18147;51.952;6.146;2023-04-01T03:07:15;17.02;;;8.77;;
31537;SDS011;18147;51.952;6.146;2023-04-01T03:09:41;17.02;;;7.07;;
31537;SDS011;18147;51.952;6.146;2023-04-01T03:12:06;18.85;;;7.68;;
31537;SDS011;18147;51.952;6.146;2023-04-01T03:14:42;15.93;;;8.23;;
31537;SDS011;18147;51.952;6.146;2023-04-01T03:17:07;20.45;;;9.82;;
31537;SDS011;18147;51.952;6.146;2023-04-01T03:19:33;20.13;;;7.07;;
31537;SDS011;18147;51.952;6.146;2023-04-01T03:22:06;13.48;;;6.28;;
31537;SDS011;18147;51.952;6.146;2023-04-01T03:24:31;10.13;;;5.78;;
31537;SDS011;18147;51.952;6.146;2023-04-01T03:27:01;12.15;;;5.95;;
31537;SDS011;18147;51.952;6.146;2023-04-01T03:29:26;10.82;;;4.90;;
31537;SDS011;18147;51.952;6.146;2023-04-01T03:31:52;13.75;;;5.90;;
31537;SDS011;18147;51.952;6.146;2023-04-01T03:34:24;14.18;;;4.50;;
31537;SDS011;18147;51.952;6.146;2023-04-01T03:36:51;8.65;;;4.63;;
31537;SDS011;18147;51.952;6.146;2023-04-01T03:39:18;9.07;;;3.85;;
31537;SDS011;18147;51.952;6.146;2023-04-01T03:41:45;9.48;;;5.25;;
31537;SDS011;18147;51.952;6.146;2023-04-01T03:44:11;11.23;;;5.10;;
31537;SDS011;18147;51.952;6.146;2023-04-01T03:46:36;8.13;;;4.10;;
31537;SDS011;18147;51.952;6.146;2023-04-01T03:49:06;12.88;;;5.15;;
31537;SDS011;18147;51.952;6.146;2023-04-01T03:51:37;6.88;;;4.22;;
31537;SDS011;18147;51.952;6.146;2023-04-01T03:54:03;11.57;;;5.00;;
31537;SDS011;18147;51.952;6.146;2023-04-01T03:56:39;9.38;;;4.25;;
31537;SDS011;18147;51.952;6.146;2023-04-01T03:59:05;11.00;;;5.10;;
31537;SDS011;18147;51.952;6.146;2023-04-01T04:01:32;12.55;;;5.57;;
31537;SDS011;18147;51.952;6.146;2023-04-01T04:03:58;12.27;;;5.43;;
31537;SDS011;18147;51.952;6.146;2023-04-01T04:06:25;9.77;;;4.90;;
31537;SDS011;18147;51.952;6.146;2023-04-01T04:08:55;7.05;;;4.20;;
31537;SDS011;18147;51.952;6.146;2023-04-01T04:11:21;6.88;;;3.88;;
31537;SDS011;18147;51.952;6.146;2023-04-01T04:13:50;7.88;;;3.97;;
31537;SDS011;18147;51.952;6.146;2023-04-01T04:16:18;6.47;;;3.72;;
31537;SDS011;18147;51.952;6.146;2023-04-01T04:18:49;7.93;;;3.85;;
31537;SDS011;18147;51.952;6.146;2023-04-01T04:21:16;8.52;;;3.50;;
31537;SDS011;18147;51.952;6.146;2023-04-01T04:23:42;7.50;;;4.07;;
31537;SDS011;18147;51.952;6.146;2023-04-01T04:26:14;6.07;;;3.40;;
31537;SDS011;18147;51.952;6.146;2023-04-01T04:28:41;5.68;;;3.55;;
31537;SDS011;18147;51.952;6.146;2023-04-01T04:31:07;9.10;;;4.35;;
31537;SDS011;18147;51.952;6.146;2023-04-01T04:33:34;6.32;;;3.65;;
31537;SDS011;18147;51.952;6.146;2023-04-01T04:36:00;14.18;;;3.97;;
31537;SDS011;18147;51.952;6.146;2023-04-01T04:38:27;5.25;;;3.53;;
31537;SDS011;18147;51.952;6.146;2023-04-01T04:40:56;8.82;;;3.88;;
31537;SDS011;18147;51.952;6.146;2023-04-01T04:43:22;7.75;;;3.42;;
31537;SDS011;18147;51.952;6.146;2023-04-01T04:45:49;8.50;;;3.53;;
31537;SDS011;18147;51.952;6.146;2023-04-01T04:48:16;5.25;;;3.75;;
31537;SDS011;18147;51.952;6.146;2023-04-01T04:50:48;6.97;;;4.13;;
31537;SDS011;18147;51.952;6.146;2023-04-01T04:53:17;5.97;;;3.40;;
31537;SDS011;18147;51.952;6.146;2023-04-01T04:55:48;6.72;;;3.85;;
31537;SDS011;18147;51.952;6.146;2023-04-01T04:58:35;7.35;;;3.67;;
31537;SDS011;18147;51.952;6.146;2023-04-01T05:01:06;6.07;;;3.78;;
31537;SDS011;18147;51.952;6.146;2023-04-01T05:03:37;8.15;;;4.38;;
31537;SDS011;18147;51.952;6.146;2023-04-01T05:06:04;7.22;;;4.32;;
31537;SDS011;18147;51.952;6.146;2023-04-01T05:08:31;6.90;;;4.32;;
31537;SDS011;18147;51.952;6.146;2023-04-01T05:10:57;7.80;;;4.45;;
31537;SDS011;18147;51.952;6.146;2023-04-01T05:13:24;9.90;;;4.88;;
31537;SDS011;18147;51.952;6.146;2023-04-01T05:15:50;11.20;;;5.47;;
31537;SDS011;18147;51.952;6.146;2023-04-01T05:18:16;10.18;;;5.28;;
31537;SDS011;18147;51.952;6.146;2023-04-01T05:20:49;12.48;;;6.07;;
31537;SDS011;18147;51.952;6.146;2023-04-01T05:23:16;12.68;;;6.57;;
31537;SDS011;18147;51.952;6.146;2023-04-01T05:25:43;14.38;;;7.57;;
31537;SDS011;18147;51.952;6.146;2023-04-01T05:28:10;15.02;;;7.72;;
31537;SDS011;18147;51.952;6.146;2023-04-01T05:30:36;16.20;;;8.63;;
31537;SDS011;18147;51.952;6.146;2023-04-01T05:33:22;15.77;;;8.13;;
31537;SDS011;18147;51.952;6.146;2023-04-01T05:35:47;15.40;;;7.70;;
31537;SDS011;18147;51.952;6.146;2023-04-01T05:38:13;17.70;;;8.15;;
31537;SDS011;18147;51.952;6.146;2023-04-01T05:40:42;17.40;;;8.52;;
31537;SDS011;18147;51.952;6.146;2023-04-01T05:43:08;15.98;;;8.45;;
31537;SDS011;18147;51.952;6.146;2023-04-01T05:45:34;17.85;;;8.75;;
31537;SDS011;18147;51.952;6.146;2023-04-01T05:48:00;20.20;;;9.02;;
31537;SDS011;18147;51.952;6.146;2023-04-01T05:50:35;16.88;;;8.07;;
31537;SDS011;18147;51.952;6.146;2023-04-01T05:53:01;14.23;;;7.25;;
31537;SDS011;18147;51.952;6.146;2023-04-01T05:55:27;17.48;;;8.35;;
31537;SDS011;18147;51.952;6.146;2023-04-01T05:57:53;18.70;;;8.50;;
31537;SDS011;18147;51.952;6.146;2023-04-01T06:00:23;20.60;;;7.95;;
31537;SDS011;18147;51.952;6.146;2023-04-01T06:02:49;16.48;;;8.95;;
31537;SDS011;18147;51.952;6.146;2023-04-01T06:05:21;19.30;;;9.10;;
31537;SDS011;18147;51.952;6.146;2023-04-01T06:07:50;18.80;;;8.35;;
31537;SDS011;18147;51.952;6.146;2023-04-01T06:10:25;23.42;;;9.10;;
31537;SDS011;18147;51.952;6.146;2023-04-01T06:18:52;22.15;;;9.38;;
31537;SDS011;18147;51.952;6.146;2023-04-01T06:27:03;22.75;;;10.00;;
31537;SDS011;18147;51.952;6.146;2023-04-01T06:38:36;25.67;;;10.57;;
31537;SDS011;18147;51.952;6.146;2023-04-01T06:43:59;23.77;;;9.57;;
31537;SDS011;18147;51.952;6.146;2023-04-01T06:50:17;29.42;;;9.30;;
31537;SDS011;18147;51.952;6.146;2023-04-01T06:53:31;25.75;;;9.00;;
31537;SDS011;18147;51.952;6.146;2023-04-01T06:56:31;29.67;;;9.82;;
31537;SDS011;18147;51.952;6.146;2023-04-01T06:59:05;38.97;;;11.18;;
31537;SDS011;18147;51.952;6.146;2023-04-01T07:01:39;25.65;;;9.80;;
31537;SDS011;18147;51.952;6.146;2023-04-01T07:04:14;20.73;;;8.38;;
31537;SDS011;18147;51.952;6.146;2023-04-01T07:06:50;24.55;;;8.27;;
31537;SDS011;18147;51.952;6.146;2023-04-01T07:09:27;21.15;;;8.45;;
31537;SDS011;18147;51.952;6.146;2023-04-01T07:18:05;25.48;;;8.77;;
31537;SDS011;18147;51.952;6.146;2023-04-01T07:20:37;20.00;;;7.57;;
31537;SDS011;18147;51.952;6.146;2023-04-01T07:23:10;20.58;;;7.85;;
31537;SDS011;18147;51.952;6.146;2023-04-01T07:26:15;24.27;;;8.15;;
31537;SDS011;18147;51.952;6.146;2023-04-01T07:29:11;20.38;;;7.82;;
31537;SDS011;18147;51.952;6.146;2023-04-01T07:37:30;17.15;;;6.35;;
31537;SDS011;18147;51.952;6.146;2023-04-01T07:43:02;22.80;;;7.82;;
31537;SDS011;18147;51.952;6.146;2023-04-01T07:52:05;21.42;;;8.05;;
31537;SDS011;18147;51.952;6.146;2023-04-01T07:57:27;18.65;;;8.05;;
31537;SDS011;18147;51.952;6.146;2023-04-01T08:20:58;18.30;;;7.60;;
31537;SDS011;18147;51.952;6.146;2023-04-01T08:23:47;16.73;;;7.53;;
31537;SDS011;18147;51.952;6.146;2023-04-01T08:26:20;16.85;;;7.22;;
31537;SDS011;18147;51.952;6.146;2023-04-01T08:29:12;13.68;;;5.95;;
31537;SDS011;18147;51.952;6.146;2023-04-01T08:31:43;11.68;;;5.70;;
31537;SDS011;18147;51.952;6.146;2023-04-01T08:34:37;15.13;;;6.78;;
31537;SDS011;18147;51.952;6.146;2023-04-01T08:37:12;15.50;;;6.68;;
31537;SDS011;18147;51.952;6.146;2023-04-01T08:39:45;14.82;;;6.90;;
31537;SDS011;18147;51.952;6.146;2023-04-01T08:42:18;12.67;;;6.07;;
31537;SDS011;18147;51.952;6.146;2023-04-01T08:48:13;10.65;;;5.75;;
31537;SDS011;18147;51.952;6.146;2023-04-01T08:56:55;8.05;;;5.00;;
31537;SDS011;18147;51.952;6.146;2023-04-01T09:05:32;10.07;;;4.47;;
31537;SDS011;18147;51.952;6.146;2023-04-01T09:14:32;6.93;;;3.55;;
31537;SDS011;18147;51.952;6.146;2023-04-01T09:17:29;4.78;;;2.58;;
31537;SDS011;18147;51.952;6.146;2023-04-01T09:20:37;5.25;;;2.60;;
31537;SDS011;18147;51.952;6.146;2023-04-01T09:38:11;8.18;;;4.20;;
31537;SDS011;18147;51.952;6.146;2023-04-01T09:40:48;10.38;;;4.55;;
31537;SDS011;18147;51.952;6.146;2023-04-01T10:01:15;2.92;;;1.40;;
31537;SDS011;18147;51.952;6.146;2023-04-01T10:14:14;0.60;;;0.60;;
31537;SDS011;18147;51.952;6.146;2023-04-01T10:19:24;0.40;;;0.40;;
31537;SDS011;18147;51.952;6.146;2023-04-01T10:48:23;2.90;;;1.23;;
31537;SDS011;18147;51.952;6.146;2023-04-01T11:07:41;5.03;;;3.33;;
31537;SDS011;18147;51.952;6.146;2023-04-01T11:10:07;6.47;;;3.42;;
31537;SDS011;18147;51.952;6.146;2023-04-01T11:13:13;7.68;;;3.58;;
31537;SDS011;18147;51.952;6.146;2023-04-01T11:26:52;7.07;;;4.35;;
31537;SDS011;18147;51.952;6.146;2023-04-01T11:29:53;9.75;;;5.03;;
31537;SDS011;18147;51.952;6.146;2023-04-01T11:35:25;8.02;;;4.75;;
31537;SDS011;18147;51.952;6.146;2023-04-01T11:52:21;16.17;;;6.50;;
31537;SDS011;18147;51.952;6.146;2023-04-01T11:55:25;10.40;;;5.80;;
31537;SDS011;18147;51.952;6.146;2023-04-01T11:58:22;15.40;;;6.78;;
31537;SDS011;18147;51.952;6.146;2023-04-01T12:01:06;11.57;;;6.10;;
31537;SDS011;18147;51.952;6.146;2023-04-01T12:06:49;11.10;;;5.38;;
31537;SDS011;18147;51.952;6.146;2023-04-01T12:09:34;10.68;;;5.60;;
31537;SDS011;18147;51.952;6.146;2023-04-01T12:18:00;3.97;;;2.17;;
31537;SDS011;18147;51.952;6.146;2023-04-01T12:20:50;1.58;;;1.10;;
31537;SDS011;18147;51.952;6.146;2023-04-01T12:23:47;1.02;;;0.82;;
31537;SDS011;18147;51.952;6.146;2023-04-01T12:26:47;2.15;;;0.90;;
31537;SDS011;18147;51.952;6.146;2023-04-01T12:44:13;4.32;;;1.33;;
31537;SDS011;18147;51.952;6.146;2023-04-01T12:49:31;1.42;;;1.02;;
31537;SDS011;18147;51.952;6.146;2023-04-01T12:52:06;2.25;;;1.52;;
31537;SDS011;18147;51.952;6.146;2023-04-01T12:57:55;1.65;;;1.13;;
31537;SDS011;18147;51.952;6.146;2023-04-01T13:17:43;1.10;;;0.98;;
31537;SDS011;18147;51.952;6.146;2023-04-01T13:20:34;1.20;;;1.10;;
31537;SDS011;18147;51.952;6.146;2023-04-01T13:28:38;4.47;;;3.03;;
31537;SDS011;18147;51.952;6.146;2023-04-01T13:34:08;5.47;;;3.05;;
31537;SDS011;18147;51.952;6.146;2023-04-01T13:36:56;4.72;;;3.00;;
31537;SDS011;18147;51.952;6.146;2023-04-01T13:39:41;5.45;;;3.08;;
31537;SDS011;18147;51.952;6.146;2023-04-01T13:53:27;4.07;;;2.67;;
31537;SDS011;18147;51.952;6.146;2023-04-01T14:12:47;2.63;;;1.45;;
31537;SDS011;18147;51.952;6.146;2023-04-01T14:21:23;4.28;;;2.47;;
31537;SDS011;18147;51.952;6.146;2023-04-01T14:27:09;3.80;;;2.03;;
31537;SDS011;18147;51.952;6.146;2023-04-01T14:33:01;3.72;;;1.90;;
31537;SDS011;18147;51.952;6.146;2023-04-01T14:35:50;2.60;;;1.98;;
31537;SDS011;18147;51.952;6.146;2023-04-01T14:42:38;3.33;;;1.92;;
31537;SDS011;18147;51.952;6.146;2023-04-01T14:51:04;4.40;;;2.85;;
31537;SDS011;18147;51.952;6.146;2023-04-01T14:53:41;4.68;;;3.55;;
31537;SDS011;18147;51.952;6.146;2023-04-01T14:56:16;5.80;;;3.65;;
31537;SDS011;18147;51.952;6.146;2023-04-01T14:59:14;4.75;;;3.28;;
31537;SDS011;18147;51.952;6.146;2023-04-01T15:01:43;4.88;;;3.35;;
31537;SDS011;18147;51.952;6.146;2023-04-01T15:04:24;7.32;;;3.80;;
31537;SDS011;18147;51.952;6.146;2023-04-01T15:18:17;10.02;;;4.68;;
31537;SDS011;18147;51.952;6.146;2023-04-01T15:32:16;6.43;;;3.42;;
31537;SDS011;18147;51.952;6.146;2023-04-01T15:37:57;10.02;;;4.05;;
31537;SDS011;18147;51.952;6.146;2023-04-01T15:40:49;5.75;;;3.35;;
31537;SDS011;18147;51.952;6.146;2023-04-01T15:46:44;8.45;;;4.32;;
31537;SDS011;18147;51.952;6.146;2023-04-01T15:49:35;8.05;;;4.55;;
31537;SDS011;18147;51.952;6.146;2023-04-01T16:08:52;10.55;;;5.72;;
31537;SDS011;18147;51.952;6.146;2023-04-01T16:11:36;8.70;;;4.55;;
31537;SDS011;18147;51.952;6.146;2023-04-01T16:22:35;9.07;;;5.50;;
31537;SDS011;18147;51.952;6.146;2023-04-01T16:28:23;10.90;;;6.43;;
31537;SDS011;18147;51.952;6.146;2023-04-01T16:34:01;9.10;;;5.22;;
31537;SDS011;18147;51.952;6.146;2023-04-01T16:36:46;12.25;;;5.65;;
31537;SDS011;18147;51.952;6.146;2023-04-01T16:39:45;11.35;;;6.97;;
31537;SDS011;18147;51.952;6.146;2023-04-01T16:42:38;11.60;;;6.05;;
31537;SDS011;18147;51.952;6.146;2023-04-01T16:47:57;8.13;;;4.55;;
31537;SDS011;18147;51.952;6.146;2023-04-01T16:56:16;9.18;;;5.20;;
31537;SDS011;18147;51.952;6.146;2023-04-01T16:59:04;7.35;;;4.03;;
31537;SDS011;18147;51.952;6.146;2023-04-01T17:04:31;8.13;;;4.93;;
31537;SDS011;18147;51.952;6.146;2023-04-01T17:13:18;10.20;;;5.78;;
31537;SDS011;18147;51.952;6.146;2023-04-01T17:15:58;10.35;;;5.45;;
31537;SDS011;18147;51.952;6.146;2023-04-01T17:21:47;10.27;;;5.18;;
31537;SDS011;18147;51.952;6.146;2023-04-01T17:27:35;10.23;;;5.78;;
31537;SDS011;18147;51.952;6.146;2023-04-01T17:35:14;14.73;;;7.70;;
31537;SDS011;18147;51.952;6.146;2023-04-01T17:43:22;11.80;;;6.07;;
31537;SDS011;18147;51.952;6.146;2023-04-01T17:51:24;10.57;;;6.72;;
31537;SDS011;18147;51.952;6.146;2023-04-01T17:56:59;13.55;;;7.32;;
31537;SDS011;18147;51.952;6.146;2023-04-01T17:59:39;14.38;;;7.45;;
31537;SDS011;18147;51.952;6.146;2023-04-01T18:02:22;15.93;;;7.97;;
31537;SDS011;18147;51.952;6.146;2023-04-01T18:10:23;15.95;;;8.38;;
31537;SDS011;18147;51.952;6.146;2023-04-01T18:15:40;18.13;;;9.00;;
31537;SDS011;18147;51.952;6.146;2023-04-01T18:18:26;14.70;;;8.40;;
31537;SDS011;18147;51.952;6.146;2023-04-01T18:23:58;15.13;;;7.95;;
31537;SDS011;18147;51.952;6.146;2023-04-01T18:26:44;14.45;;;8.07;;
31537;SDS011;18147;51.952;6.146;2023-04-01T18:35:12;14.13;;;7.78;;
31537;SDS011;18147;51.952;6.146;2023-04-01T18:38:27;14.43;;;8.23;;
31537;SDS011;18147;51.952;6.146;2023-04-01T18:43:42;16.17;;;8.95;;
31537;SDS011;18147;51.952;6.146;2023-04-01T18:49:16;14.30;;;7.88;;
31537;SDS011;18147;51.952;6.146;2023-04-01T18:51:56;16.25;;;7.97;;
31537;SDS011;18147;51.952;6.146;2023-04-01T18:54:31;10.88;;;6.57;;
31537;SDS011;18147;51.952;6.146;2023-04-01T18:57:12;18.75;;;7.53;;
31537;SDS011;18147;51.952;6.146;2023-04-01T18:59:56;17.38;;;8.18;;
31537;SDS011;18147;51.952;6.146;2023-04-01T19:02:48;13.52;;;7.50;;
31537;SDS011;18147;51.952;6.146;2023-04-01T19:05:29;12.35;;;6.80;;
31537;SDS011;18147;51.952;6.146;2023-04-01T19:21:53;11.75;;;6.65;;
31537;SDS011;18147;51.952;6.146;2023-04-01T19:27:18;13.27;;;8.25;;
31537;SDS011;18147;51.952;6.146;2023-04-01T19:38:43;15.15;;;8.38;;
31537;SDS011;18147;51.952;6.146;2023-04-01T19:46:51;10.25;;;5.93;;
31537;SDS011;18147;51.952;6.146;2023-04-01T19:58:21;13.00;;;7.47;;
31537;SDS011;18147;51.952;6.146;2023-04-01T20:00:46;12.68;;;6.50;;
31537;SDS011;18147;51.952;6.146;2023-04-01T20:20:13;13.70;;;7.82;;
31537;SDS011;18147;51.952;6.146;2023-04-01T20:25:25;14.48;;;8.68;;
31537;SDS011;18147;51.952;6.146;2023-04-01T20:28:05;14.25;;;8.05;;
31537;SDS011;18147;51.952;6.146;2023-04-01T20:31:01;12.70;;;7.78;;
31537;SDS011;18147;51.952;6.146;2023-04-01T20:41:34;16.63;;;9.60;;
31537;SDS011;18147;51.952;6.146;2023-04-01T20:44:10;21.52;;;9.27;;
31537;SDS011;18147;51.952;6.146;2023-04-01T20:49:41;13.27;;;7.68;;
31537;SDS011;18147;51.952;6.146;2023-04-01T20:52:24;13.40;;;7.85;;
31537;SDS011;18147;51.952;6.146;2023-04-01T21:00:41;16.35;;;8.98;;
31537;SDS011;18147;51.952;6.146;2023-04-01T21:03:56;16.70;;;9.55;;
31537;SDS011;18147;51.952;6.146;2023-04-01T21:15:02;16.23;;;9.43;;
31537;SDS011;18147;51.952;6.146;2023-04-01T21:23:05;14.10;;;7.63;;
31537;SDS011;18147;51.952;6.146;2023-04-01T21:26:03;16.33;;;8.35;;
31537;SDS011;18147;51.952;6.146;2023-04-01T21:46:11;10.73;;;6.72;;
31537;SDS011;18147;51.952;6.146;2023-04-01T21:49:29;13.00;;;6.97;;
31537;SDS011;18147;51.952;6.146;2023-04-01T22:09:32;14.70;;;7.65;;
31537;SDS011;18147;51.952;6.146;2023-04-01T22:12:09;15.73;;;9.25;;
31537;SDS011;18147;51.952;6.146;2023-04-01T22:17:35;12.27;;;7.40;;
31537;SDS011;18147;51.952;6.146;2023-04-01T22:20:23;10.18;;;6.30;;
31537;SDS011;18147;51.952;6.146;2023-04-01T22:25:29;8.05;;;5.30;;
31537;SDS011;18147;51.952;6.146;2023-04-01T22:28:04;12.02;;;6.78;;
31537;SDS011;18147;51.952;6.146;2023-04-01T22:30:58;12.65;;;7.50;;
31537;SDS011;18147;51.952;6.146;2023-04-01T22:33:41;16.98;;;9.15;;
31537;SDS011;18147;51.952;6.146;2023-04-01T22:36:20;11.98;;;7.47;;
31537;SDS011;18147;51.952;6.146;2023-04-01T22:39:02;9.50;;;6.22;;
31537;SDS011;18147;51.952;6.146;2023-04-01T22:47:12;11.20;;;6.95;;
31537;SDS011;18147;51.952;6.146;2023-04-01T22:52:39;15.38;;;9.32;;
31537;SDS011;18147;51.952;6.146;2023-04-01T22:55:12;15.65;;;8.85;;
31537;SDS011;18147;51.952;6.146;2023-04-01T22:57:44;14.27;;;8.40;;
31537;SDS011;18147;51.952;6.146;2023-04-01T23:00:35;20.88;;;9.80;;
31537;SDS011;18147;51.952;6.146;2023-04-01T23:06:12;22.52;;;9.45;;
31537;SDS011;18147;51.952;6.146;2023-04-01T23:16:51;18.65;;;10.90;;
31537;SDS011;18147;51.952;6.146;2023-04-01T23:19:31;20.38;;;10.77;;
31537;SDS011;18147;51.952;6.146;2023-04-01T23:22:24;21.27;;;11.50;;
31537;SDS011;18147;51.952;6.146;2023-04-01T23:25:15;19.30;;;10.45;;
31537;SDS011;18147;51.952;6.146;2023-04-01T23:35:57;19.55;;;10.68;;
31537;SDS011;18147;51.952;6.146;2023-04-01T23:38:34;16.92;;;9.90;;
31537;SDS011;18147;51.952;6.146;2023-04-01T23:41:05;17.73;;;9.93;;
31537;SDS011;18147;51.952;6.146;2023-04-01T23:43:32;16.25;;;9.45;;
31537;SDS011;18147;51.952;6.146;2023-04-01T23:46:02;19.23;;;9.68;;
31537;SDS011;18147;51.952;6.146;2023-04-01T23:48:36;15.38;;;8.13;;
31537;SDS011;18147;51.952;6.146;2023-04-01T23:54:17;15.77;;;8.95;;
31537;SDS011;18147;51.952;6.146;2023-04-01T23:56:50;18.60;;;10.45;;
31537;SDS011;18147;51.952;6.146;2023-04-01T23:59:22;12.20;;;7.20;;
